createdAt,value
2023-01-17T00:00:40.539Z,99.99
2023-01-17T00:01:40.264Z,99.99
2023-01-17T00:02:39.585Z,99.99
2023-01-17T00:03:40.360Z,99.99
2023-01-17T00:04:39.481Z,99.99
2023-01-17T00:05:40.443Z,99.99
2023-01-17T00:06:39.709Z,99.99
2023-01-17T00:07:39.985Z,99.98
2023-01-17T00:08:58.854Z,99.98
2023-01-17T00:09:40.092Z,99.98
2023-01-17T00:10:39.489Z,99.87
2023-01-17T00:11:40.161Z,99.77
2023-01-17T00:12:39.000Z,99.66
2023-01-17T00:13:40.321Z,99.77
2023-01-17T00:14:40.126Z,99.77
2023-01-17T00:15:40.086Z,99.77
2023-01-17T00:16:39.486Z,99.66
2023-01-17T00:17:40.045Z,99.66
2023-01-17T00:18:58.871Z,99.46
2023-01-17T00:19:40.131Z,99.25
2023-01-17T00:20:39.917Z,99.04
2023-01-17T00:21:40.187Z,99.15
2023-01-17T00:22:39.225Z,99.04
2023-01-17T00:23:40.286Z,99.04
2023-01-17T00:24:40.094Z,98.94
2023-01-17T00:25:39.914Z,98.94
2023-01-17T00:26:40.200Z,98.94
2023-01-17T00:27:39.019Z,98.94
2023-01-17T00:28:58.816Z,98.94
2023-01-17T00:29:39.517Z,98.73
2023-01-17T00:30:39.833Z,98.73
2023-01-17T00:31:40.141Z,98.63
2023-01-17T00:32:39.958Z,98.63
2023-01-17T00:33:39.013Z,98.52
2023-01-17T00:34:40.027Z,98.63
2023-01-17T00:35:39.331Z,98.63
2023-01-17T00:36:40.128Z,98.83
2023-01-17T00:37:39.910Z,98.83
2023-01-17T00:38:58.751Z,98.83
2023-01-17T00:39:39.955Z,98.83
2023-01-17T00:40:39.328Z,98.73
2023-01-17T00:41:40.120Z,98.83
2023-01-17T00:42:39.446Z,98.83
2023-01-17T00:43:38.599Z,98.73
2023-01-17T00:44:39.012Z,98.73
2023-01-17T00:45:39.917Z,98.73
2023-01-17T00:46:38.971Z,98.73
2023-01-17T00:47:40.100Z,98.73
2023-01-17T00:48:58.459Z,98.42
2023-01-17T00:49:39.579Z,98.11
2023-01-17T00:50:39.903Z,98.21
2023-01-17T00:51:39.661Z,98.21
2023-01-17T00:52:39.951Z,98.11
2023-01-17T00:53:39.709Z,97.90
2023-01-17T00:54:39.537Z,97.80
2023-01-17T00:55:39.008Z,97.90
2023-01-17T00:56:39.626Z,98.11
2023-01-17T00:57:39.916Z,98.21
2023-01-17T00:58:58.255Z,98.11
2023-01-17T00:59:38.980Z,97.90
2023-01-17T01:00:39.012Z,97.90
2023-01-17T01:01:39.724Z,98.00
2023-01-17T01:02:39.040Z,98.11
2023-01-17T01:03:39.659Z,98.11
2023-01-17T01:04:38.976Z,98.21
2023-01-17T01:05:39.757Z,98.11
2023-01-17T01:06:39.603Z,98.16
2023-01-17T01:07:39.826Z,98.16
2023-01-17T01:08:58.197Z,98.26
2023-01-17T01:09:39.376Z,98.32
2023-01-17T01:10:39.681Z,98.26
2023-01-17T01:11:39.470Z,98.26
2023-01-17T01:12:39.805Z,98.26
2023-01-17T01:13:39.563Z,98.05
2023-01-17T01:14:38.201Z,97.95
2023-01-17T01:15:39.814Z,97.85
2023-01-17T01:16:39.553Z,97.43
2023-01-17T01:17:39.334Z,97.33
2023-01-17T01:18:58.185Z,97.33
2023-01-17T01:19:38.517Z,97.43
2023-01-17T01:20:38.519Z,97.64
2023-01-17T01:21:39.434Z,97.53
2023-01-17T01:22:39.267Z,97.53
2023-01-17T01:23:39.535Z,97.53
2023-01-17T01:24:39.336Z,97.85
2023-01-17T01:25:39.630Z,97.95
2023-01-17T01:26:38.522Z,97.95
2023-01-17T01:27:39.213Z,98.05
2023-01-17T01:28:58.048Z,98.26
2023-01-17T01:29:39.253Z,98.36
2023-01-17T01:30:38.931Z,98.47
2023-01-17T01:31:38.611Z,98.47
2023-01-17T01:32:39.215Z,98.26
2023-01-17T01:33:39.541Z,98.36
2023-01-17T01:34:39.326Z,98.16
2023-01-17T01:35:38.646Z,98.16
2023-01-17T01:36:39.390Z,98.16
2023-01-17T01:37:38.516Z,98.26
2023-01-17T01:38:58.027Z,98.36
2023-01-17T01:39:39.233Z,98.36
2023-01-17T01:40:39.519Z,98.36
2023-01-17T01:41:39.308Z,98.36
2023-01-17T01:42:39.095Z,98.26
2023-01-17T01:43:38.530Z,98.26
2023-01-17T01:44:39.207Z,98.16
2023-01-17T01:45:39.068Z,98.10
2023-01-17T01:46:39.374Z,97.99
2023-01-17T01:47:39.179Z,98.10
2023-01-17T01:48:59.465Z,97.99
2023-01-17T01:49:39.292Z,97.99
2023-01-17T01:50:37.618Z,98.10
2023-01-17T01:51:39.318Z,98.20
2023-01-17T01:52:39.141Z,98.30
2023-01-17T01:53:38.939Z,98.14
2023-01-17T01:54:38.530Z,98.03
2023-01-17T01:55:39.052Z,98.14
2023-01-17T01:56:39.340Z,98.14
2023-01-17T01:57:39.080Z,98.14
2023-01-17T01:58:57.901Z,98.24
2023-01-17T01:59:39.102Z,98.14
2023-01-17T02:00:38.983Z,98.08
2023-01-17T02:01:38.918Z,98.08
2023-01-17T02:02:39.167Z,98.19
2023-01-17T02:03:38.482Z,98.29
2023-01-17T02:04:39.274Z,98.19
2023-01-17T02:05:38.079Z,98.39
2023-01-17T02:06:38.861Z,98.50
2023-01-17T02:07:39.144Z,98.71
2023-01-17T02:08:58.948Z,98.60
2023-01-17T02:09:39.211Z,98.71
2023-01-17T02:10:38.054Z,98.60
2023-01-17T02:11:38.285Z,98.71
2023-01-17T02:12:38.610Z,98.60
2023-01-17T02:13:38.905Z,98.60
2023-01-17T02:14:38.707Z,98.39
2023-01-17T02:15:39.001Z,98.54
2023-01-17T02:16:38.101Z,98.54
2023-01-17T02:17:39.205Z,98.33
2023-01-17T02:18:57.548Z,98.33
2023-01-17T02:19:38.775Z,98.33
2023-01-17T02:20:39.139Z,98.54
2023-01-17T02:21:38.065Z,98.65
2023-01-17T02:22:37.954Z,98.75
2023-01-17T02:23:39.021Z,98.75
2023-01-17T02:24:38.812Z,98.65
2023-01-17T02:25:39.085Z,98.54
2023-01-17T02:26:38.893Z,98.85
2023-01-17T02:27:38.045Z,98.85
2023-01-17T02:28:57.605Z,98.65
2023-01-17T02:29:38.794Z,98.54
2023-01-17T02:30:38.619Z,98.44
2023-01-17T02:31:38.914Z,98.44
2023-01-17T02:32:38.809Z,98.54
2023-01-17T02:33:38.587Z,98.44
2023-01-17T02:34:38.056Z,98.44
2023-01-17T02:35:38.724Z,98.54
2023-01-17T02:36:38.236Z,98.75
2023-01-17T02:37:38.759Z,98.75
2023-01-17T02:38:57.180Z,98.75
2023-01-17T02:39:38.876Z,98.75
2023-01-17T02:40:38.060Z,98.65
2023-01-17T02:41:38.522Z,98.65
2023-01-17T02:42:38.827Z,98.65
2023-01-17T02:43:38.601Z,98.44
2023-01-17T02:44:38.897Z,98.54
2023-01-17T02:45:38.740Z,98.65
2023-01-17T02:46:38.510Z,98.54
2023-01-17T02:47:38.879Z,98.65
2023-01-17T02:48:57.209Z,98.75
2023-01-17T02:49:38.417Z,98.75
2023-01-17T02:50:37.934Z,98.75
2023-01-17T02:51:37.580Z,98.85
2023-01-17T02:52:37.577Z,98.85
2023-01-17T02:53:38.165Z,98.75
2023-01-17T02:54:37.942Z,98.65
2023-01-17T02:55:38.717Z,98.65
2023-01-17T02:56:38.547Z,98.54
2023-01-17T02:57:38.328Z,98.44
2023-01-17T02:58:57.197Z,98.44
2023-01-17T02:59:38.392Z,98.54
2023-01-17T03:00:38.709Z,98.65
2023-01-17T03:01:38.116Z,98.65
2023-01-17T03:02:37.814Z,98.54
2023-01-17T03:03:38.719Z,98.65
2023-01-17T03:04:37.583Z,98.65
2023-01-17T03:05:37.529Z,98.85
2023-01-17T03:06:38.591Z,98.75
2023-01-17T03:07:37.911Z,98.75
2023-01-17T03:08:57.372Z,98.69
2023-01-17T03:09:38.573Z,98.75
2023-01-17T03:10:37.570Z,98.85
2023-01-17T03:11:38.156Z,98.69
2023-01-17T03:12:38.464Z,98.69
2023-01-17T03:13:38.235Z,98.80
2023-01-17T03:14:38.544Z,98.90
2023-01-17T03:15:38.291Z,98.69
2023-01-17T03:16:37.611Z,98.90
2023-01-17T03:17:38.420Z,98.90
2023-01-17T03:18:56.816Z,98.90
2023-01-17T03:19:38.562Z,98.69
2023-01-17T03:20:37.591Z,98.69
2023-01-17T03:21:38.192Z,98.80
2023-01-17T03:22:37.589Z,98.90
2023-01-17T03:23:37.898Z,98.63
2023-01-17T03:24:38.197Z,98.74
2023-01-17T03:25:38.028Z,99.05
2023-01-17T03:26:37.830Z,99.05
2023-01-17T03:27:38.147Z,99.05
2023-01-17T03:28:57.031Z,99.05
2023-01-17T03:29:38.237Z,99.05
2023-01-17T03:30:38.129Z,99.15
2023-01-17T03:31:37.871Z,99.15
2023-01-17T03:32:38.208Z,99.26
2023-01-17T03:33:37.256Z,99.36
2023-01-17T03:34:37.597Z,99.46
2023-01-17T03:35:37.780Z,99.46
2023-01-17T03:36:38.121Z,99.36
2023-01-17T03:37:37.982Z,99.26
2023-01-17T03:38:56.840Z,99.36
2023-01-17T03:39:38.108Z,99.36
2023-01-17T03:40:37.585Z,99.41
2023-01-17T03:41:37.747Z,99.41
2023-01-17T03:42:37.595Z,99.41
2023-01-17T03:43:37.898Z,99.51
2023-01-17T03:44:37.713Z,99.51
2023-01-17T03:45:37.593Z,99.41
2023-01-17T03:46:37.128Z,99.51
2023-01-17T03:47:38.185Z,99.51
2023-01-17T03:48:56.534Z,99.51
2023-01-17T03:49:38.384Z,99.45
2023-01-17T03:50:38.236Z,99.72
2023-01-17T03:51:37.101Z,99.82
2023-01-17T03:52:37.880Z,99.93
2023-01-17T03:53:38.213Z,99.98
2023-01-17T03:54:38.032Z,99.99
2023-01-17T03:55:37.386Z,99.99
2023-01-17T03:56:38.176Z,99.99
2023-01-17T03:57:37.105Z,99.99
2023-01-17T03:58:56.326Z,99.99
2023-01-17T03:59:38.061Z,99.99
2023-01-17T04:00:37.050Z,99.99
2023-01-17T04:01:38.193Z,99.99
2023-01-17T04:02:37.968Z,99.99
2023-01-17T04:03:37.109Z,99.99
2023-01-17T04:04:38.122Z,99.99
2023-01-17T04:05:37.427Z,99.99
2023-01-17T04:06:37.707Z,99.99
2023-01-17T04:07:37.531Z,99.99
2023-01-17T04:08:56.374Z,99.99
2023-01-17T04:09:38.082Z,99.99
2023-01-17T04:10:37.135Z,99.99
2023-01-17T04:11:37.670Z,99.99
2023-01-17T04:12:37.951Z,99.99
2023-01-17T04:13:37.745Z,99.99
2023-01-17T04:14:37.143Z,99.99
2023-01-17T04:15:37.858Z,99.99
2023-01-17T04:16:36.971Z,99.99
2023-01-17T04:17:38.037Z,99.99
2023-01-17T04:18:56.315Z,99.99
2023-01-17T04:19:37.099Z,99.99
2023-01-17T04:20:37.819Z,99.99
2023-01-17T04:21:37.725Z,99.99
2023-01-17T04:22:37.482Z,99.99
2023-01-17T04:23:37.801Z,99.99
2023-01-17T04:24:37.584Z,99.99
2023-01-17T04:25:37.102Z,99.99
2023-01-17T04:26:37.693Z,99.99
2023-01-17T04:27:37.471Z,99.99
2023-01-17T04:28:56.293Z,99.99
2023-01-17T04:29:38.534Z,99.99
2023-01-17T04:30:37.839Z,99.99
2023-01-17T04:31:36.678Z,99.99
2023-01-17T04:32:36.621Z,99.99
2023-01-17T04:33:37.704Z,99.99
2023-01-17T04:34:37.514Z,99.99
2023-01-17T04:35:37.818Z,99.99
2023-01-17T04:36:37.194Z,99.99
2023-01-17T04:37:36.714Z,99.99
2023-01-17T04:38:56.348Z,99.99
2023-01-17T04:39:37.557Z,99.99
2023-01-17T04:40:37.332Z,99.99
2023-01-17T04:41:37.616Z,99.99
2023-01-17T04:42:37.384Z,99.99
2023-01-17T04:43:37.685Z,99.99
2023-01-17T04:44:36.634Z,99.99
2023-01-17T04:45:37.274Z,99.99
2023-01-17T04:46:36.776Z,99.99
2023-01-17T04:47:37.346Z,99.99
2023-01-17T04:48:56.168Z,99.99
2023-01-17T04:49:35.942Z,99.99
2023-01-17T04:50:36.623Z,99.99
2023-01-17T04:51:37.563Z,99.99
2023-01-17T04:52:37.330Z,99.99
2023-01-17T04:53:37.625Z,99.99
2023-01-17T04:54:37.432Z,99.99
2023-01-17T04:55:36.767Z,99.99
2023-01-17T04:56:37.648Z,99.99
2023-01-17T04:57:37.325Z,99.99
2023-01-17T04:58:56.149Z,99.99
2023-01-17T04:59:37.382Z,99.99
2023-01-17T05:00:37.149Z,99.99
2023-01-17T05:01:36.726Z,99.99
2023-01-17T05:02:36.698Z,99.99
2023-01-17T05:03:37.093Z,99.99
2023-01-17T05:04:37.359Z,99.99
2023-01-17T05:05:36.667Z,99.99
2023-01-17T05:06:37.527Z,99.99
2023-01-17T05:07:37.350Z,99.99
2023-01-17T05:08:55.666Z,99.99
2023-01-17T05:09:37.401Z,99.99
2023-01-17T05:10:37.201Z,99.99
2023-01-17T05:11:36.994Z,99.99
2023-01-17T05:12:37.257Z,99.99
2023-01-17T05:13:37.077Z,99.99
2023-01-17T05:14:36.641Z,99.99
2023-01-17T05:15:37.144Z,99.99
2023-01-17T05:16:36.674Z,99.99
2023-01-17T05:17:37.207Z,99.99
2023-01-17T05:18:55.551Z,99.99
2023-01-17T05:19:36.155Z,99.99
2023-01-17T05:20:37.087Z,99.99
2023-01-17T05:21:37.378Z,99.99
2023-01-17T05:22:37.239Z,99.99
2023-01-17T05:23:37.046Z,99.99
2023-01-17T05:24:37.343Z,99.99
2023-01-17T05:25:36.137Z,99.99
2023-01-17T05:26:36.915Z,99.99
2023-01-17T05:27:37.234Z,99.99
2023-01-17T05:28:55.549Z,99.99
2023-01-17T05:29:37.287Z,99.99
2023-01-17T05:30:36.303Z,99.99
2023-01-17T05:31:36.143Z,99.99
2023-01-17T05:32:36.641Z,99.99
2023-01-17T05:33:36.929Z,99.99
2023-01-17T05:34:37.215Z,99.99
2023-01-17T05:35:36.474Z,99.99
2023-01-17T05:36:36.762Z,99.99
2023-01-17T05:37:36.152Z,99.99
2023-01-17T05:38:56.912Z,99.99
2023-01-17T05:39:37.216Z,99.99
2023-01-17T05:40:36.963Z,99.99
2023-01-17T05:41:36.733Z,99.99
2023-01-17T05:42:37.053Z,99.99
2023-01-17T05:43:36.036Z,99.99
2023-01-17T05:44:36.593Z,99.99
2023-01-17T05:45:36.853Z,99.99
2023-01-17T05:46:36.713Z,99.99
2023-01-17T05:47:36.971Z,99.99
2023-01-17T05:48:56.165Z,99.99
2023-01-17T05:49:35.187Z,99.99
2023-01-17T05:50:35.480Z,99.99
2023-01-17T05:51:35.211Z,99.99
2023-01-17T05:52:35.499Z,99.99
2023-01-17T05:53:35.254Z,99.99
2023-01-17T05:54:35.515Z,99.99
2023-01-17T05:55:35.240Z,99.99
2023-01-17T05:56:35.520Z,99.99
2023-01-17T05:57:35.252Z,99.99
2023-01-17T05:58:56.524Z,99.99
2023-01-17T05:59:37.293Z,99.99
2023-01-17T06:00:35.088Z,99.99
2023-01-17T06:01:35.326Z,99.91
2023-01-17T06:02:35.104Z,99.91
2023-01-17T06:03:35.353Z,99.91
2023-01-17T06:04:35.157Z,99.99
2023-01-17T06:05:35.380Z,99.99
2023-01-17T06:06:35.137Z,99.99
2023-01-17T06:07:35.378Z,99.99
2023-01-17T06:08:56.704Z,99.99
2023-01-17T06:09:34.997Z,99.99
2023-01-17T06:10:35.237Z,99.91
2023-01-17T06:11:35.036Z,99.81
2023-01-17T06:12:35.296Z,99.81
2023-01-17T06:13:35.080Z,99.91
2023-01-17T06:14:35.307Z,99.81
2023-01-17T06:15:35.128Z,99.81
2023-01-17T06:16:34.878Z,99.91
2023-01-17T06:17:35.138Z,99.75
2023-01-17T06:18:55.672Z,99.65
2023-01-17T06:19:35.289Z,99.75
2023-01-17T06:20:35.066Z,99.75
2023-01-17T06:21:35.308Z,99.75
2023-01-17T06:22:35.064Z,99.85
2023-01-17T06:23:34.844Z,99.85
2023-01-17T06:24:35.072Z,99.96
2023-01-17T06:25:34.286Z,99.85
2023-01-17T06:26:34.265Z,99.96
2023-01-17T06:27:34.248Z,99.99
2023-01-17T06:28:56.489Z,99.99
2023-01-17T06:29:34.827Z,99.99
2023-01-17T06:30:35.208Z,99.99
2023-01-17T06:31:34.877Z,99.99
2023-01-17T06:32:35.096Z,99.99
2023-01-17T06:33:34.841Z,99.99
2023-01-17T06:34:35.067Z,99.99
2023-01-17T06:35:34.949Z,99.99
2023-01-17T06:36:35.080Z,99.99
2023-01-17T06:37:34.846Z,99.99
2023-01-17T06:38:56.694Z,99.99
2023-01-17T06:39:35.007Z,99.99
2023-01-17T06:40:34.749Z,99.99
2023-01-17T06:41:35.012Z,99.99
2023-01-17T06:42:34.740Z,99.99
2023-01-17T06:43:35.015Z,99.80
2023-01-17T06:44:34.726Z,99.90
2023-01-17T06:45:35.006Z,99.99
2023-01-17T06:46:34.858Z,99.99
2023-01-17T06:47:35.001Z,99.99
2023-01-17T06:48:56.262Z,99.99
2023-01-17T06:49:34.598Z,99.99
2023-01-17T06:50:34.833Z,99.99
2023-01-17T06:51:34.607Z,99.99
2023-01-17T06:52:34.841Z,99.99
2023-01-17T06:53:34.607Z,99.99
2023-01-17T06:54:34.863Z,99.99
2023-01-17T06:55:34.644Z,99.99
2023-01-17T06:56:34.910Z,99.99
2023-01-17T06:57:34.615Z,99.99
2023-01-17T06:58:55.740Z,99.99
2023-01-17T06:59:34.751Z,99.99
2023-01-17T07:00:34.538Z,99.99
2023-01-17T07:01:34.900Z,99.99
2023-01-17T07:02:34.544Z,99.99
2023-01-17T07:03:34.992Z,99.99
2023-01-17T07:04:35.143Z,99.99
2023-01-17T07:05:34.811Z,99.99
2023-01-17T07:06:34.553Z,99.99
2023-01-17T07:07:34.839Z,99.99
2023-01-17T07:08:56.091Z,99.99
2023-01-17T07:09:34.390Z,99.99
2023-01-17T07:10:34.619Z,99.99
2023-01-17T07:11:34.409Z,99.99
2023-01-17T07:12:34.638Z,99.99
2023-01-17T07:13:36.359Z,99.99
2023-01-17T07:14:35.583Z,99.99
2023-01-17T07:15:44.181Z,99.99
2023-01-17T07:16:34.525Z,99.99
2023-01-17T07:17:35.013Z,99.99
2023-01-17T07:18:55.467Z,99.99
2023-01-17T07:19:34.266Z,99.99
2023-01-17T07:20:34.528Z,99.99
2023-01-17T07:21:34.274Z,99.99
2023-01-17T07:22:34.536Z,99.99
2023-01-17T07:23:34.268Z,99.99
2023-01-17T07:24:34.520Z,99.99
2023-01-17T07:25:34.293Z,99.99
2023-01-17T07:26:34.536Z,99.99
2023-01-17T07:27:34.276Z,99.99
2023-01-17T07:28:56.059Z,99.99
2023-01-17T07:29:34.435Z,99.90
2023-01-17T07:30:34.602Z,99.84
2023-01-17T07:31:34.370Z,99.84
2023-01-17T07:32:34.625Z,99.99
2023-01-17T07:33:34.354Z,99.99
2023-01-17T07:34:34.115Z,99.99
2023-01-17T07:35:34.370Z,99.95
2023-01-17T07:36:34.120Z,99.95
2023-01-17T07:37:34.397Z,99.95
2023-01-17T07:38:55.220Z,99.95
2023-01-17T07:39:34.508Z,99.95
2023-01-17T07:40:41.797Z,99.95
2023-01-17T07:41:35.498Z,99.95
2023-01-17T07:42:34.241Z,99.95
2023-01-17T07:43:33.998Z,99.95
2023-01-17T07:44:34.243Z,99.95
2023-01-17T07:45:33.998Z,99.99
2023-01-17T07:46:34.276Z,99.99
2023-01-17T07:47:34.059Z,99.84
2023-01-17T07:48:54.301Z,99.53
2023-01-17T07:49:34.041Z,99.53
2023-01-17T07:50:35.606Z,99.63
2023-01-17T07:51:34.037Z,99.63
2023-01-17T07:52:35.732Z,99.53
2023-01-17T07:53:34.067Z,99.53
2023-01-17T07:54:34.309Z,99.63
2023-01-17T07:55:34.102Z,99.63
2023-01-17T07:56:34.330Z,99.63
2023-01-17T07:57:34.091Z,99.63
2023-01-17T07:58:54.351Z,99.74
2023-01-17T07:59:34.093Z,99.74
2023-01-17T08:00:33.836Z,99.74
2023-01-17T08:01:34.310Z,99.84
2023-01-17T08:02:34.341Z,99.74
2023-01-17T08:03:34.130Z,99.74
2023-01-17T08:04:34.000Z,99.74
2023-01-17T08:05:34.131Z,99.63
2023-01-17T08:06:35.374Z,99.53
2023-01-17T08:07:35.671Z,99.43
2023-01-17T08:08:53.995Z,99.43
2023-01-17T08:09:35.771Z,99.38
2023-01-17T08:10:34.091Z,99.27
2023-01-17T08:11:33.858Z,99.27
2023-01-17T08:12:34.761Z,99.38
2023-01-17T08:13:33.231Z,99.27
2023-01-17T08:14:33.990Z,99.17
2023-01-17T08:15:33.200Z,99.07
2023-01-17T08:16:34.037Z,98.96
2023-01-17T08:17:33.281Z,98.75
2023-01-17T08:18:54.908Z,98.60
2023-01-17T08:19:33.151Z,98.60
2023-01-17T08:20:33.925Z,98.60
2023-01-17T08:21:33.660Z,98.50
2023-01-17T08:22:33.923Z,98.39
2023-01-17T08:23:33.691Z,98.39
2023-01-17T08:24:33.934Z,98.19
2023-01-17T08:25:33.697Z,98.19
2023-01-17T08:26:33.935Z,98.14
2023-01-17T08:27:35.073Z,97.94
2023-01-17T08:28:54.089Z,97.83
2023-01-17T08:29:33.763Z,97.72
2023-01-17T08:30:34.020Z,97.62
2023-01-17T08:31:33.858Z,97.41
2023-01-17T08:32:33.529Z,97.16
2023-01-17T08:33:33.015Z,97.16
2023-01-17T08:34:33.735Z,96.95
2023-01-17T08:35:36.019Z,96.75
2023-01-17T08:36:33.777Z,96.75
2023-01-17T08:37:33.547Z,96.53
2023-01-17T08:38:55.269Z,96.33
2023-01-17T08:39:33.574Z,96.33
2023-01-17T08:40:33.815Z,96.18
2023-01-17T08:41:33.576Z,96.18
2023-01-17T08:42:33.815Z,95.76
2023-01-17T08:43:33.588Z,95.72
2023-01-17T08:44:33.843Z,95.51
2023-01-17T08:45:33.626Z,95.40
2023-01-17T08:46:33.877Z,94.95
2023-01-17T08:47:33.612Z,94.74
2023-01-17T08:48:54.275Z,94.13
2023-01-17T08:49:33.685Z,92.90
2023-01-17T08:50:33.436Z,91.02
2023-01-17T08:51:33.691Z,89.65
2023-01-17T08:52:33.461Z,87.12
2023-01-17T08:53:33.701Z,84.97
2023-01-17T08:54:33.433Z,83.22
2023-01-17T08:55:33.694Z,82.10
2023-01-17T08:56:33.463Z,80.52
2023-01-17T08:57:33.715Z,79.28
2023-01-17T08:58:53.768Z,77.94
2023-01-17T08:59:33.342Z,76.25
2023-01-17T09:00:33.581Z,74.77
2023-01-17T09:01:33.572Z,74.19
2023-01-17T09:02:33.580Z,73.33
2023-01-17T09:03:33.355Z,72.20
2023-01-17T09:04:33.605Z,72.51
2023-01-17T09:05:33.355Z,72.92
2023-01-17T09:06:33.597Z,71.41
2023-01-17T09:07:33.391Z,70.01
2023-01-17T09:08:55.096Z,67.63
2023-01-17T09:09:33.446Z,66.37
2023-01-17T09:10:33.159Z,64.23
2023-01-17T09:11:33.458Z,63.59
2023-01-17T09:12:33.198Z,63.00
2023-01-17T09:13:33.455Z,63.03
2023-01-17T09:14:33.183Z,63.00
2023-01-17T09:15:33.469Z,62.43
2023-01-17T09:16:33.265Z,61.46
2023-01-17T09:17:33.484Z,59.80
2023-01-17T09:18:54.704Z,59.46
2023-01-17T09:19:33.511Z,59.26
2023-01-17T09:20:33.252Z,59.14
2023-01-17T09:21:33.537Z,61.13
2023-01-17T09:22:33.273Z,63.09
2023-01-17T09:23:33.517Z,64.48
2023-01-17T09:24:33.257Z,65.54
2023-01-17T09:25:33.008Z,66.93
2023-01-17T09:26:33.246Z,68.23
2023-01-17T09:27:33.032Z,69.18
2023-01-17T09:28:53.785Z,70.90
2023-01-17T09:29:33.403Z,71.96
2023-01-17T09:30:33.331Z,72.61
2023-01-17T09:31:33.439Z,73.23
2023-01-17T09:32:33.372Z,73.88
2023-01-17T09:33:33.206Z,74.33
2023-01-17T09:34:32.927Z,74.22
2023-01-17T09:35:33.397Z,74.77
2023-01-17T09:36:32.945Z,75.15
2023-01-17T09:37:33.241Z,75.36
2023-01-17T09:38:54.437Z,74.46
2023-01-17T09:39:33.271Z,73.50
2023-01-17T09:40:34.506Z,73.40
2023-01-17T09:41:33.292Z,73.85
2023-01-17T09:42:33.691Z,72.99
2023-01-17T09:43:33.268Z,72.58
2023-01-17T09:44:33.043Z,72.16
2023-01-17T09:45:32.830Z,72.78
2023-01-17T09:46:33.052Z,72.61
2023-01-17T09:47:32.891Z,73.43
2023-01-17T09:48:54.580Z,72.78
2023-01-17T09:49:32.880Z,72.85
2023-01-17T09:50:33.139Z,71.24
2023-01-17T09:51:32.864Z,69.91
2023-01-17T09:52:33.135Z,68.27
2023-01-17T09:53:32.876Z,68.68
2023-01-17T09:54:33.142Z,67.83
2023-01-17T09:55:32.871Z,67.79
2023-01-17T09:56:33.160Z,66.63
2023-01-17T09:57:32.892Z,66.25
2023-01-17T09:58:53.815Z,66.22
2023-01-17T09:59:35.718Z,66.30
2023-01-17T10:00:32.727Z,65.31
2023-01-17T10:01:33.141Z,63.13
2023-01-17T10:02:32.820Z,63.00
2023-01-17T10:03:33.014Z,61.75
2023-01-17T10:04:32.713Z,61.31
2023-01-17T10:05:32.969Z,60.77
2023-01-17T10:06:32.716Z,61.15
2023-01-17T10:07:32.955Z,59.80
2023-01-17T10:08:54.212Z,60.69
2023-01-17T10:09:32.998Z,59.33
2023-01-17T10:10:32.760Z,56.85
2023-01-17T10:14:57.002Z,56.29
2023-01-17T10:15:03.294Z,51.57
2023-01-17T10:16:03.315Z,52.06
2023-01-17T10:20:02.924Z,51.83
2023-01-17T10:20:09.174Z,49.41
2023-01-17T10:26:05.256Z,48.62
2023-01-17T10:26:10.058Z,46.02
2023-01-17T10:27:30.825Z,44.49
2023-01-17T10:28:10.591Z,45.47
2023-01-17T10:33:09.833Z,43.91
2023-01-17T10:33:14.783Z,43.08
2023-01-17T11:36:27.043Z,45.03
2023-01-17T11:36:31.843Z,36.68
2023-01-17T11:37:32.597Z,41.55
2023-01-17T11:38:32.348Z,40.37
2023-01-17T11:39:31.825Z,40.50
2023-01-17T12:02:02.080Z,41.99
2023-01-17T12:17:48.856Z,33.41
2023-01-17T12:17:53.650Z,37.29
2023-01-17T12:18:54.390Z,37.30
2023-01-17T12:19:54.155Z,38.71
2023-01-17T12:20:54.397Z,38.93
2023-01-17T12:21:54.148Z,38.75
2023-01-17T12:22:54.425Z,41.11
2023-01-17T12:23:54.169Z,41.16
2023-01-17T12:24:54.417Z,42.13
2023-01-17T12:25:54.159Z,42.72
2023-01-17T12:27:15.912Z,45.46
2023-01-17T12:27:54.252Z,46.92
2023-01-17T12:28:54.502Z,47.90
2023-01-17T12:29:54.283Z,48.56
2023-01-17T12:30:54.548Z,47.85
2023-01-17T12:31:54.246Z,48.23
2023-01-17T12:32:54.009Z,48.11
2023-01-17T12:33:54.258Z,48.92
2023-01-17T12:34:54.545Z,47.90
2023-01-17T12:35:54.293Z,48.21
2023-01-17T12:37:14.302Z,49.35
2023-01-17T12:38:04.433Z,48.23
2023-01-17T12:38:55.206Z,48.33
2023-01-17T12:39:53.947Z,49.58
2023-01-17T12:40:54.211Z,51.94
2023-01-17T12:41:53.963Z,52.60
2023-01-17T12:42:54.232Z,52.73
2023-01-17T12:43:53.982Z,54.61
2023-01-17T12:44:54.242Z,55.76
2023-01-17T12:45:53.967Z,55.99
2023-01-17T12:47:14.884Z,55.10
2023-01-17T12:47:54.007Z,56.35
2023-01-17T12:48:54.276Z,56.15
2023-01-17T12:49:54.014Z,56.07
2023-01-17T12:50:54.266Z,57.02
2023-01-17T12:51:54.027Z,57.94
2023-01-17T12:52:54.287Z,56.54
2023-01-17T12:53:54.045Z,56.97
2023-01-17T12:54:53.811Z,57.89
2023-01-17T12:55:54.075Z,58.51
2023-01-17T12:57:15.376Z,57.82
2023-01-17T12:57:54.159Z,57.00
2023-01-17T12:58:53.914Z,57.03
2023-01-17T12:59:54.158Z,58.26
2023-01-17T13:00:53.986Z,59.89
2023-01-17T13:01:54.340Z,59.00
2023-01-17T13:02:53.947Z,61.05
2023-01-17T13:03:56.724Z,60.05
2023-01-17T13:04:58.699Z,60.80
2023-01-17T13:05:54.721Z,61.72
2023-01-17T13:07:14.694Z,61.00
2023-01-17T13:07:53.748Z,60.31
2023-01-17T13:08:54.003Z,59.70
2023-01-17T13:09:53.756Z,62.60
2023-01-17T13:10:54.027Z,61.47
2023-01-17T13:11:53.767Z,62.51
2023-01-17T13:12:54.039Z,62.19
2023-01-17T13:13:53.773Z,63.22
2023-01-17T13:14:54.037Z,59.42
2023-01-17T13:15:53.815Z,61.88
2023-01-17T13:17:15.605Z,62.63
2023-01-17T13:17:53.909Z,62.95
2023-01-17T13:18:53.672Z,62.12
2023-01-17T13:19:53.907Z,64.39
2023-01-17T13:20:53.659Z,60.89
2023-01-17T13:21:53.910Z,62.02
2023-01-17T13:22:53.666Z,64.39
2023-01-17T13:23:53.910Z,63.87
2023-01-17T13:24:53.666Z,64.39
2023-01-17T13:25:53.903Z,65.11
2023-01-17T13:27:14.408Z,64.41
2023-01-17T13:27:53.443Z,65.23
2023-01-17T13:28:55.016Z,62.87
2023-01-17T13:29:53.469Z,64.62
2023-01-17T13:30:53.736Z,63.79
2023-01-17T13:31:53.508Z,64.03
2023-01-17T13:32:53.773Z,64.75
2023-01-17T13:33:53.526Z,65.26
2023-01-17T13:34:53.783Z,63.42
2023-01-17T13:35:53.538Z,64.44
2023-01-17T13:37:15.275Z,65.16
2023-01-17T13:37:53.601Z,64.24
2023-01-17T13:38:53.857Z,63.34
2023-01-17T13:39:53.619Z,65.50
2023-01-17T13:40:53.383Z,64.68
2023-01-17T13:41:53.640Z,65.81
2023-01-17T13:42:53.385Z,64.78
2023-01-17T13:43:53.635Z,65.33
2023-01-17T13:44:53.378Z,63.78
2023-01-17T13:45:53.708Z,64.40
2023-01-17T13:47:14.895Z,63.06
2023-01-17T13:47:53.704Z,63.99
2023-01-17T13:48:53.444Z,64.50
2023-01-17T13:49:53.717Z,65.02
2023-01-17T13:50:53.477Z,65.95
2023-01-17T13:51:53.251Z,64.84
2023-01-17T13:52:53.486Z,65.77
2023-01-17T13:53:53.261Z,66.70
2023-01-17T13:54:53.501Z,66.39
2023-01-17T13:55:53.272Z,67.35
2023-01-17T13:57:13.941Z,65.28
2023-01-17T13:57:53.364Z,65.80
2023-01-17T13:58:53.598Z,67.55
2023-01-17T13:59:53.357Z,67.66
2023-01-17T14:00:53.171Z,65.49
2023-01-17T14:01:53.539Z,65.49
2023-01-17T14:02:55.339Z,66.73
2023-01-17T14:03:53.394Z,64.87
2023-01-17T14:04:53.113Z,66.42
2023-01-17T14:05:53.371Z,67.48
2023-01-17T14:07:14.654Z,65.83
2023-01-17T14:07:53.423Z,66.45
2023-01-17T14:08:53.167Z,68.21
2023-01-17T14:09:53.418Z,69.03
2023-01-17T14:10:53.246Z,67.90
2023-01-17T14:11:53.443Z,68.21
2023-01-17T14:12:53.207Z,65.83
2023-01-17T14:13:53.421Z,64.70
2023-01-17T14:14:53.177Z,65.52
2023-01-17T14:15:53.452Z,66.35
2023-01-17T14:17:14.670Z,66.14
2023-01-17T14:17:53.015Z,66.97
2023-01-17T14:18:53.255Z,65.00
2023-01-17T14:19:53.073Z,66.45
2023-01-17T14:20:53.290Z,68.21
2023-01-17T14:21:53.065Z,66.86
2023-01-17T14:22:53.317Z,66.79
2023-01-17T14:23:53.089Z,66.48
2023-01-17T14:24:53.301Z,65.76
2023-01-17T14:25:53.084Z,65.03
2023-01-17T14:27:14.815Z,64.62
2023-01-17T14:27:53.121Z,64.42
2023-01-17T14:28:52.883Z,65.03
2023-01-17T14:29:53.135Z,66.27
2023-01-17T14:30:52.866Z,67.41
2023-01-17T14:31:53.175Z,65.17
2023-01-17T14:32:52.876Z,67.72
2023-01-17T14:33:53.132Z,67.82
2023-01-17T14:34:52.884Z,67.51
2023-01-17T14:35:53.177Z,66.72
2023-01-17T14:37:12.957Z,66.72
2023-01-17T14:37:53.187Z,66.20
2023-01-17T14:38:52.918Z,67.24
2023-01-17T14:39:53.194Z,68.68
2023-01-17T14:40:52.931Z,70.54